Time;durP1;ratioP1;P1;durP2;ratioP2;P2;SDS_P1;SDS_P2;PMS_P1;PMS_P2;Temp;Humidity;BMP_temperature;BMP_pressure;BME280_temperature;BME280_humidity;BME280_pressure;Samples;Min_cycle;Max_cycle;Signal;HPM_P1;HPM_P2
2023/08/24 00:00:40;;;;;;;8.70;3.50;;;;;;;16.62;86.19;98137.80;106835;1279;22738;-82
2023/08/24 00:03:28;;;;;;;5.50;3.70;;;;;;;16.77;86.42;98135.35;107705;1279;22586;-81
2023/08/24 00:05:56;;;;;;;6.40;3.40;;;;;;;16.84;85.81;98138.15;107203;1279;24258;-81
2023/08/24 00:08:24;;;;;;;5.40;3.70;;;;;;;16.89;85.66;98140.35;106804;1279;22539;-82
2023/08/24 00:10:52;;;;;;;4.30;3.20;;;;;;;16.92;85.62;98141.73;106960;1265;22583;-81
2023/08/24 00:13:20;;;;;;;4.60;3.30;;;;;;;17.02;85.65;98139.74;107339;1279;22567;-82
2023/08/24 00:15:48;;;;;;;6.40;3.30;;;;;;;17.12;85.16;98144.42;107339;1279;23189;-82
2023/08/24 00:18:18;;;;;;;4.50;3.40;;;;;;;17.12;84.78;98148.77;107481;1279;25965;-82
2023/08/24 00:20:47;;;;;;;8.20;3.80;;;;;;;17.10;84.61;98149.05;106939;1265;24773;-81
2023/08/24 00:23:18;;;;;;;5.30;3.50;;;;;;;17.11;84.57;98154.35;106696;1278;22570;-82
2023/08/24 00:25:46;;;;;;;7.50;3.60;;;;;;;17.12;84.25;98150.34;106888;1279;22557;-81
2023/08/24 00:28:14;;;;;;;4.80;3.50;;;;;;;17.08;83.92;98145.83;106630;1279;190505;-81
2023/08/24 00:30:42;;;;;;;6.90;3.20;;;;;;;17.00;83.57;98153.50;106768;1281;23144;-81
2023/08/24 00:33:10;;;;;;;7.00;3.80;;;;;;;16.92;83.48;98156.23;106771;1279;25593;-82
2023/08/24 00:35:38;;;;;;;5.30;3.50;;;;;;;16.85;83.57;98153.89;106756;1279;25390;-81
2023/08/24 00:38:06;;;;;;;5.30;3.50;;;;;;;16.85;84.08;98152.48;106834;1279;24360;-81
2023/08/24 00:40:34;;;;;;;5.70;3.60;;;;;;;16.98;84.83;98154.23;106702;1268;22657;-81
2023/08/24 00:43:02;;;;;;;11.80;3.80;;;;;;;17.09;84.05;98147.96;106671;1278;24285;-81
2023/08/24 00:45:33;;;;;;;6.40;3.60;;;;;;;17.06;83.10;98152.26;106819;1265;22661;-81
2023/08/24 00:48:03;;;;;;;6.80;3.60;;;;;;;16.98;83.72;98158.90;107396;1280;22543;-81
2023/08/24 00:50:31;;;;;;;5.40;3.60;;;;;;;17.05;84.01;98161.08;106846;1280;23398;-81
2023/08/24 00:52:59;;;;;;;7.30;3.80;;;;;;;17.22;84.61;98158.48;106805;1280;24189;-81
2023/08/24 00:55:27;;;;;;;6.60;3.90;;;;;;;17.37;84.26;98154.95;106805;1280;26656;-81
2023/08/24 00:57:57;;;;;;;5.40;3.60;;;;;;;17.54;84.43;98147.81;106746;1280;22541;-80
2023/08/24 01:00:26;;;;;;;5.60;3.40;;;;;;;17.68;83.92;98153.02;106811;1265;22654;-80
2023/08/24 01:02:55;;;;;;;5.50;4.30;;;;;;;17.66;83.21;98154.98;106787;1265;22572;-80
2023/08/24 01:05:23;;;;;;;7.90;4.00;;;;;;;17.74;84.38;98153.45;106783;1280;24221;-81
2023/08/24 01:07:52;;;;;;;5.70;3.60;;;;;;;17.89;84.37;98156.39;106823;1265;22672;-81
2023/08/24 01:10:20;;;;;;;6.10;4.30;;;;;;;18.05;84.53;98159.30;106824;1265;22601;-80
2023/08/24 01:12:55;;;;;;;6.90;4.30;;;;;;;18.17;83.15;98158.27;106863;1274;23016;-80
2023/08/24 01:15:36;;;;;;;6.60;4.20;;;;;;;18.08;82.32;98157.07;106867;1268;22526;-80
2023/08/24 01:18:06;;;;;;;6.50;4.90;;;;;;;18.02;82.62;98157.64;106796;1280;25433;-81
2023/08/24 01:20:37;;;;;;;9.10;5.20;;;;;;;17.88;81.92;98151.50;106883;1273;25417;-81
2023/08/24 01:23:35;;;;;;;8.10;5.80;;;;;;;17.59;81.18;98150.61;106851;1280;22897;-81
2023/08/24 01:26:12;;;;;;;9.10;6.00;;;;;;;17.31;81.99;98149.92;106852;1280;22547;-82
2023/08/24 01:28:43;;;;;;;8.70;6.10;;;;;;;17.22;82.21;98148.91;106832;1268;22770;-81
2023/08/24 01:31:16;;;;;;;8.30;7.40;;;;;;;17.17;83.39;98150.39;107238;1280;22645;-82
2023/08/24 01:33:45;;;;;;;7.70;6.50;;;;;;;17.28;83.61;98151.30;107128;1268;22534;-81
2023/08/24 01:36:16;;;;;;;9.30;6.80;;;;;;;17.14;82.17;98151.89;106857;1280;24206;-81
2023/08/24 01:38:52;;;;;;;8.30;6.10;;;;;;;16.88;82.40;98153.92;106874;1280;22536;-81
2023/08/24 01:41:28;;;;;;;10.60;5.60;;;;;;;16.64;82.38;98149.13;106799;1265;22659;-80
2023/08/24 01:43:59;;;;;;;9.60;6.90;;;;;;;16.40;82.83;98154.39;106753;1265;25488;-80
2023/08/24 01:46:28;;;;;;;10.60;7.10;;;;;;;16.23;83.46;98148.52;106804;1265;24102;-81
2023/08/24 01:49:00;;;;;;;9.20;7.70;;;;;;;16.24;84.68;98151.30;106810;1280;22579;-81
2023/08/24 01:51:28;;;;;;;9.20;7.80;;;;;;;16.27;84.19;98151.86;106789;1265;24619;-81
2023/08/24 01:53:58;;;;;;;9.50;6.70;;;;;;;16.28;83.96;98150.19;106866;1268;22536;-81
2023/08/24 01:56:26;;;;;;;10.00;6.70;;;;;;;16.18;84.34;98154.02;106908;1265;22526;-82
2023/08/24 01:58:54;;;;;;;10.00;7.00;;;;;;;15.94;84.10;98149.48;106772;1268;24228;-82
2023/08/24 02:01:22;;;;;;;7.60;5.80;;;;;;;15.86;84.71;98148.80;106754;1271;22613;-82
2023/08/24 02:03:50;;;;;;;9.50;6.00;;;;;;;15.84;84.55;98150.18;106864;1280;24237;-83
2023/08/24 02:06:18;;;;;;;7.10;5.90;;;;;;;15.92;86.45;98148.54;106949;1277;22656;-83
2023/08/24 02:08:49;;;;;;;9.10;5.70;;;;;;;16.11;86.21;98147.73;106899;1280;25343;-82
2023/08/24 02:11:17;;;;;;;8.90;6.50;;;;;;;16.16;85.69;98147.70;106864;1280;23148;-82
2023/08/24 02:13:45;;;;;;;8.70;6.30;;;;;;;16.01;86.03;98149.16;106826;1265;22587;-81
2023/08/24 02:16:13;;;;;;;7.30;6.50;;;;;;;15.86;86.42;98149.47;107693;1265;22654;-81
2023/08/24 02:18:42;;;;;;;8.70;6.40;;;;;;;15.72;86.87;98146.64;106884;1280;23769;-83
2023/08/24 02:21:11;;;;;;;7.30;5.50;;;;;;;15.61;86.96;98147.81;106867;1265;23112;-81
2023/08/24 02:23:40;;;;;;;8.40;5.50;;;;;;;15.53;87.12;98149.44;106849;1265;22526;-81
2023/08/24 02:26:09;;;;;;;8.00;6.60;;;;;;;15.45;87.43;98139.31;106777;1280;22674;-82
2023/08/24 02:28:37;;;;;;;11.90;6.10;;;;;;;15.38;87.30;98144.18;106782;1268;26674;-82
2023/08/24 02:31:06;;;;;;;8.20;6.10;;;;;;;15.30;87.37;98148.26;106664;1270;22667;-81
2023/08/24 02:33:34;;;;;;;7.70;5.60;;;;;;;15.32;87.76;98143.81;106903;1280;22536;-82
2023/08/24 02:36:04;;;;;;;6.30;4.70;;;;;;;15.32;88.02;98140.63;106829;1280;22646;-82
2023/08/24 02:38:32;;;;;;;6.50;4.90;;;;;;;15.28;88.13;98142.01;106700;1280;24373;-81
2023/08/24 02:41:07;;;;;;;5.90;4.30;;;;;;;15.21;88.34;98144.36;106877;1280;22529;-81
2023/08/24 02:43:35;;;;;;;6.70;4.30;;;;;;;15.12;88.42;98144.98;106847;1268;22642;-82
2023/08/24 02:46:07;;;;;;;7.60;4.50;;;;;;;15.02;88.70;98144.55;106825;1280;22578;-81
2023/08/24 02:48:36;;;;;;;6.00;4.40;;;;;;;14.94;89.10;98149.95;106763;1265;22645;-81
2023/08/24 02:51:04;;;;;;;8.00;4.50;;;;;;;14.93;89.40;98152.77;106780;1272;22642;-81
2023/08/24 02:53:33;;;;;;;8.70;4.80;;;;;;;14.94;89.78;98153.63;106817;1280;22550;-82
2023/08/24 02:56:01;;;;;;;5.80;4.40;;;;;;;15.00;89.38;98150.20;106880;1265;24222;-81
2023/08/24 02:58:30;;;;;;;5.80;4.40;;;;;;;15.04;89.35;98150.61;107270;1280;22485;-81
2023/08/24 03:00:58;;;;;;;6.80;4.40;;;;;;;15.02;89.66;98147.11;107107;1280;22567;-81
2023/08/24 03:03:28;;;;;;;8.20;4.90;;;;;;;14.93;89.90;98144.73;106930;1277;22524;-82
2023/08/24 03:05:59;;;;;;;9.00;4.40;;;;;;;14.89;90.04;98149.99;106880;1272;22697;-81
2023/08/24 03:08:30;;;;;;;8.10;4.70;;;;;;;14.89;90.27;98147.83;106861;1268;22543;-81
2023/08/24 03:11:00;;;;;;;6.30;4.90;;;;;;;14.93;90.41;98150.24;106935;1268;22512;-81
2023/08/24 03:13:30;;;;;;;5.70;4.30;;;;;;;15.04;90.63;98154.34;106853;1280;22791;-81
2023/08/24 03:16:03;;;;;;;7.40;4.70;;;;;;;15.10;90.53;98151.95;106822;1280;22764;-81
2023/08/24 03:18:32;;;;;;;7.50;5.30;;;;;;;15.12;90.52;98150.25;106758;1281;22652;-81
2023/08/24 03:21:03;;;;;;;7.40;5.10;;;;;;;15.16;90.99;98148.72;106846;1268;22609;-81
2023/08/24 03:23:33;;;;;;;6.60;5.00;;;;;;;15.17;90.56;98144.65;106738;1268;22570;-81
2023/08/24 03:26:01;;;;;;;7.30;5.00;;;;;;;15.11;90.38;98150.91;106795;1280;22697;-80
2023/08/24 03:28:29;;;;;;;10.70;5.70;;;;;;;15.02;90.47;98149.92;106646;1279;24361;-81
2023/08/24 03:30:57;;;;;;;9.80;6.20;;;;;;;14.89;90.46;98147.79;106788;1265;22533;-81
2023/08/24 03:33:26;;;;;;;7.20;5.30;;;;;;;14.74;90.71;98150.80;106847;1265;23438;-81
2023/08/24 03:35:54;;;;;;;6.40;5.00;;;;;;;14.62;90.55;98150.70;106980;1269;22527;-81
2023/08/24 03:38:22;;;;;;;6.00;5.20;;;;;;;14.58;90.80;98149.48;106886;1265;22753;-81
2023/08/24 03:40:51;;;;;;;8.10;5.90;;;;;;;14.57;91.17;98151.73;106878;1271;24224;-80
2023/08/24 03:43:19;;;;;;;7.50;5.50;;;;;;;14.56;91.32;98157.66;106885;1267;25607;-81
2023/08/24 03:45:48;;;;;;;11.90;6.60;;;;;;;14.52;91.14;98155.66;107006;1278;24208;-81
2023/08/24 03:48:16;;;;;;;7.80;5.00;;;;;;;14.42;91.53;98156.36;107062;1267;22559;-80
2023/08/24 03:50:44;;;;;;;8.40;6.00;;;;;;;14.38;91.72;98159.58;106880;1268;22552;-80
2023/08/24 03:53:13;;;;;;;6.80;5.50;;;;;;;14.36;91.89;98157.96;106798;1270;22551;-80
2023/08/24 03:55:41;;;;;;;8.10;5.50;;;;;;;14.34;92.09;98156.77;106878;1268;24482;-80
2023/08/24 03:58:09;;;;;;;7.70;5.70;;;;;;;14.35;92.56;98158.91;106745;1271;25489;-82
2023/08/24 04:00:37;;;;;;;9.70;5.70;;;;;;;14.41;92.63;98157.42;106962;1279;25361;-80
2023/08/24 04:03:05;;;;;;;8.60;5.70;;;;;;;14.42;92.61;98157.73;106840;1280;24247;-79
2023/08/24 04:05:34;;;;;;;8.30;4.90;;;;;;;14.40;92.63;98159.46;106832;1271;25282;-79
2023/08/24 04:08:02;;;;;;;7.90;4.80;;;;;;;14.40;92.90;98156.19;106777;1260;25396;-79
2023/08/24 04:10:31;;;;;;;6.50;4.70;;;;;;;14.45;93.17;98157.35;106855;1279;22654;-79
2023/08/24 04:12:59;;;;;;;8.90;4.90;;;;;;;14.49;93.32;98154.83;106757;1264;25370;-79
2023/08/24 04:15:27;;;;;;;7.80;5.20;;;;;;;14.52;92.86;98156.38;106827;1268;22651;-78
2023/08/24 04:17:56;;;;;;;10.20;5.10;;;;;;;14.51;91.95;98154.73;106856;1279;22645;-79
2023/08/24 04:20:24;;;;;;;9.30;6.20;;;;;;;14.43;91.99;98158.57;106855;1279;24227;-80
2023/08/24 04:22:52;;;;;;;8.70;5.10;;;;;;;14.40;92.19;98156.79;106841;1279;22564;-79
2023/08/24 04:25:20;;;;;;;10.30;5.10;;;;;;;14.44;92.53;98158.23;106819;1279;22567;-79
2023/08/24 04:27:49;;;;;;;8.70;4.80;;;;;;;14.47;92.23;98163.58;106879;1268;22538;-83
2023/08/24 04:30:18;;;;;;;7.40;4.80;;;;;;;14.56;93.16;98157.26;106882;1280;25266;-79
2023/08/24 04:32:46;;;;;;;10.20;5.50;;;;;;;14.66;91.84;98161.50;106882;1268;25389;-80
2023/08/24 04:35:14;;;;;;;7.70;5.30;;;;;;;14.57;91.28;98161.09;106893;1266;22677;-79
2023/08/24 04:37:42;;;;;;;10.60;6.90;;;;;;;14.42;91.42;98161.34;106841;1266;22766;-80
2023/08/24 04:40:11;;;;;;;7.60;5.50;;;;;;;14.33;91.46;98160.38;106708;1269;22585;-80
2023/08/24 04:42:39;;;;;;;7.80;5.10;;;;;;;14.29;91.44;98164.73;106896;1278;22542;-81
2023/08/24 04:45:07;;;;;;;8.60;5.60;;;;;;;14.27;91.56;98165.43;106860;1265;22743;-83
2023/08/24 04:47:36;;;;;;;9.40;5.60;;;;;;;14.29;91.62;98167.82;106959;1265;22538;-83
2023/08/24 04:50:04;;;;;;;9.40;6.10;;;;;;;14.30;91.71;98162.19;106870;1268;22541;-82
2023/08/24 04:52:33;;;;;;;9.80;5.80;;;;;;;14.32;91.75;98162.34;106818;1279;23663;-82
2023/08/24 04:55:00;;;;;;;7.60;6.40;;;;;;;14.31;91.80;98160.82;106826;1273;22973;-83
2023/08/24 04:57:28;;;;;;;11.40;6.70;;;;;;;14.33;92.01;98157.89;106769;1268;22537;-82
2023/08/24 04:59:56;;;;;;;9.60;6.30;;;;;;;14.38;92.37;98162.45;106760;1268;22619;-82
2023/08/24 05:02:24;;;;;;;9.70;6.60;;;;;;;14.44;92.07;98163.30;106839;1268;22657;-81
2023/08/24 05:04:52;;;;;;;7.90;5.80;;;;;;;14.51;92.17;98167.17;106853;1268;25358;-81
2023/08/24 05:07:20;;;;;;;8.90;6.60;;;;;;;14.61;92.44;98169.71;107034;1268;23275;-83
2023/08/24 05:09:48;;;;;;;9.30;7.00;;;;;;;14.72;92.72;98169.20;106930;1279;25479;-83
2023/08/24 05:12:16;;;;;;;14.70;13.00;;;;;;;14.84;93.15;98170.52;106901;1280;22643;-81
2023/08/24 05:14:44;;;;;;;30.10;27.30;;;;;;;14.95;93.17;98168.79;106968;1280;22625;-82
2023/08/24 05:17:12;;;;;;;28.30;25.40;;;;;;;15.09;93.23;98166.82;106909;1272;25378;-79
2023/08/24 05:19:40;;;;;;;27.30;24.60;;;;;;;15.23;93.29;98169.97;106492;1275;22647;-79
2023/08/24 05:22:08;;;;;;;26.40;22.70;;;;;;;15.36;93.28;98172.94;106523;1268;22646;-79
2023/08/24 05:24:36;;;;;;;26.70;24.10;;;;;;;15.47;93.37;98173.16;106877;1262;22954;-79
2023/08/24 05:27:04;;;;;;;28.50;25.50;;;;;;;15.58;93.55;98171.85;106960;1265;22534;-84
2023/08/24 05:29:32;;;;;;;53.90;37.40;;;;;;;15.70;93.86;98171.75;106858;1268;22806;-79
2023/08/24 05:32:00;;;;;;;128.50;57.30;;;;;;;15.82;93.93;98171.45;106870;1264;25359;-81
2023/08/24 05:34:28;;;;;;;132.90;57.40;;;;;;;15.92;94.02;98173.95;106988;1275;22538;-82
2023/08/24 05:36:56;;;;;;;74.60;45.30;;;;;;;16.04;94.22;98174.34;106865;1280;22684;-80
2023/08/24 05:39:24;;;;;;;79.00;44.90;;;;;;;16.19;94.36;98174.14;106491;1278;24392;-81
2023/08/24 05:41:53;;;;;;;63.00;41.30;;;;;;;16.33;94.53;98177.96;106866;1280;22843;-81
2023/08/24 05:44:21;;;;;;;61.60;37.80;;;;;;;16.47;94.63;98174.70;106958;1266;22586;-81
2023/08/24 05:46:49;;;;;;;41.80;31.10;;;;;;;16.61;94.76;98174.81;106885;1279;24226;-81
2023/08/24 05:49:17;;;;;;;39.30;30.50;;;;;;;16.74;94.85;98176.60;106930;1279;25404;-80
2023/08/24 05:51:45;;;;;;;39.70;31.30;;;;;;;16.85;95.04;98176.20;106509;1268;22803;-81
2023/08/24 05:54:18;;;;;;;33.20;29.40;;;;;;;16.93;95.02;98177.61;106826;1279;24062;-81
2023/08/24 05:56:47;;;;;;;30.40;26.30;;;;;;;17.04;95.54;98180.71;107054;1268;22600;-82
2023/08/24 05:59:15;;;;;;;26.00;23.40;;;;;;;17.14;96.49;98177.55;107851;1265;22789;-81
2023/08/24 06:01:43;;;;;;;28.40;25.30;;;;;;;17.23;96.32;98171.41;106916;1276;24186;-81
2023/08/24 06:04:11;;;;;;;30.20;24.50;;;;;;;17.36;96.34;98170.23;107028;1279;25492;-81
2023/08/24 06:06:39;;;;;;;28.10;25.20;;;;;;;17.49;97.33;98172.87;106901;1280;24381;-81
2023/08/24 06:09:07;;;;;;;28.80;23.40;;;;;;;17.61;97.27;98173.98;106971;1266;22698;-81
2023/08/24 06:11:38;;;;;;;22.60;20.20;;;;;;;17.71;99.15;98176.23;106828;1280;22565;-81
2023/08/24 06:14:06;;;;;;;24.60;20.50;;;;;;;17.71;98.85;98178.89;106906;1265;22534;-81
2023/08/24 06:16:34;;;;;;;24.70;21.30;;;;;;;17.70;97.85;98177.63;106566;1273;24956;-81
2023/08/24 06:19:03;;;;;;;30.90;20.20;;;;;;;17.70;97.22;98186.02;106752;1280;22583;-81
2023/08/24 06:21:31;;;;;;;25.60;19.60;;;;;;;17.75;97.35;98181.21;106908;1280;25525;-81
2023/08/24 06:24:01;;;;;;;22.90;19.50;;;;;;;17.80;97.21;98182.48;106924;1280;24265;-81
2023/08/24 06:26:29;;;;;;;23.00;20.50;;;;;;;17.87;97.14;98183.98;106956;1280;22650;-81
2023/08/24 06:28:57;;;;;;;22.30;19.90;;;;;;;17.91;96.63;98184.72;106905;1280;22604;-82
2023/08/24 06:31:25;;;;;;;22.50;19.90;;;;;;;17.97;96.39;98179.08;106889;1273;25578;-81
2023/08/24 06:33:53;;;;;;;23.20;19.70;;;;;;;18.06;96.31;98178.34;106781;1279;23160;-81
2023/08/24 06:36:21;;;;;;;20.60;18.50;;;;;;;18.16;96.32;98177.82;106890;1280;25409;-81
2023/08/24 06:38:49;;;;;;;20.40;18.30;;;;;;;18.30;96.16;98179.33;106874;1278;22546;-81
2023/08/24 06:41:19;;;;;;;23.00;19.30;;;;;;;18.47;96.35;98176.34;106802;1280;24257;-81
2023/08/24 06:43:47;;;;;;;22.10;19.80;;;;;;;18.62;95.98;98175.84;106838;1268;26534;-82
2023/08/24 06:46:57;;;;;;;25.30;19.10;;;;;;;18.74;95.66;98180.69;106831;1280;22657;-82
2023/08/24 06:51:06;;;;;;;21.40;18.50;;;;;;;18.87;94.94;98182.45;106837;1280;22540;-82
2023/08/24 06:54:15;;;;;;;24.10;19.40;;;;;;;18.99;94.92;98181.39;106460;1286;22640;-82
2023/08/24 06:56:43;;;;;;;20.30;17.90;;;;;;;19.12;95.00;98178.63;106483;1274;25300;-81
2023/08/24 06:59:13;;;;;;;25.20;18.70;;;;;;;19.20;93.84;98179.71;106101;1272;25934;-80
2023/08/24 07:01:41;;;;;;;21.20;18.90;;;;;;;19.24;93.26;98177.41;106469;1286;22580;-80
2023/08/24 07:04:09;;;;;;;22.50;18.90;;;;;;;19.26;92.15;98177.77;106460;1286;24229;-81
2023/08/24 07:06:37;;;;;;;22.10;18.60;;;;;;;19.33;92.75;98177.17;105999;1280;22647;-80
2023/08/24 07:09:07;;;;;;;20.30;18.20;;;;;;;19.44;91.56;98179.55;106155;1286;22541;-80
2023/08/24 07:11:35;;;;;;;20.80;18.60;;;;;;;19.52;91.03;98176.64;106195;1276;22534;-80
2023/08/24 07:14:03;;;;;;;22.60;17.30;;;;;;;19.60;89.81;98179.34;106519;1266;22543;-80
2023/08/24 07:16:31;;;;;;;20.80;18.40;;;;;;;19.67;90.03;98180.42;106542;1269;22782;-81
2023/08/24 07:18:59;;;;;;;22.90;18.90;;;;;;;19.75;90.17;98185.86;106860;1273;22644;-81
2023/08/24 07:21:27;;;;;;;20.40;18.00;;;;;;;19.89;89.59;98183.25;106898;1265;24527;-80
2023/08/24 07:23:57;;;;;;;24.50;18.60;;;;;;;20.01;89.11;98178.07;106507;1267;25359;-80
2023/08/24 07:26:25;;;;;;;26.50;18.20;;;;;;;20.20;88.96;98186.35;107037;1268;22580;-82
2023/08/24 07:28:53;;;;;;;30.20;19.40;;;;;;;20.36;88.78;98185.77;107035;1280;24339;-81
2023/08/24 07:31:22;;;;;;;22.60;16.50;;;;;;;20.47;88.13;98181.15;106759;1277;22663;-82
2023/08/24 07:33:50;;;;;;;22.00;17.60;;;;;;;20.59;87.81;98182.64;106887;1265;22677;-82
2023/08/24 07:36:18;;;;;;;22.80;18.20;;;;;;;20.71;86.24;98181.95;106884;1276;22772;-82
2023/08/24 07:38:47;;;;;;;19.60;15.80;;;;;;;20.81;84.97;98182.00;106857;1268;22568;-82
2023/08/24 07:41:18;;;;;;;19.70;16.50;;;;;;;20.95;84.85;98177.35;106752;1271;25489;-81
2023/08/24 07:43:46;;;;;;;20.30;16.30;;;;;;;21.08;85.19;98175.73;106792;1280;22535;-82
2023/08/24 07:46:14;;;;;;;19.50;16.10;;;;;;;21.21;84.72;98180.45;107144;1280;25720;-84
2023/08/24 07:48:42;;;;;;;18.60;16.70;;;;;;;21.33;82.32;98184.76;107305;1275;22543;-82
2023/08/24 07:51:10;;;;;;;19.90;17.20;;;;;;;21.38;81.77;98188.15;106967;1280;22534;-82
2023/08/24 07:53:38;;;;;;;22.30;16.90;;;;;;;21.45;81.43;98189.70;107174;1256;23381;-81
2023/08/24 07:56:06;;;;;;;17.20;15.40;;;;;;;21.51;81.54;98186.60;106842;1278;22528;-82
2023/08/24 07:58:34;;;;;;;18.70;15.40;;;;;;;21.65;81.21;98187.95;106845;1269;24346;-81
2023/08/24 08:01:02;;;;;;;17.20;14.70;;;;;;;21.75;78.99;98187.34;106890;1280;23314;-82
2023/08/24 08:03:31;;;;;;;21.00;14.80;;;;;;;21.86;80.00;98185.17;106818;1279;23384;-81
2023/08/24 08:05:58;;;;;;;22.00;14.50;;;;;;;21.98;79.85;98180.36;106839;1259;25335;-81
2023/08/24 08:08:26;;;;;;;19.40;14.20;;;;;;;22.11;80.18;98182.14;106839;1277;24382;-80
2023/08/24 08:11:02;;;;;;;15.40;12.20;;;;;;;22.25;78.45;98185.34;106545;1265;22543;-81
2023/08/24 08:13:30;;;;;;;15.70;12.60;;;;;;;22.32;76.77;98187.27;106788;1273;25486;-80
2023/08/24 08:16:04;;;;;;;13.30;11.40;;;;;;;22.45;76.66;98187.63;106817;1267;23139;-80
2023/08/24 08:18:33;;;;;;;14.50;11.70;;;;;;;22.58;77.39;98184.58;106851;1279;22607;-81
2023/08/24 08:21:03;;;;;;;14.80;11.50;;;;;;;22.77;77.78;98182.16;106900;1279;22526;-81
2023/08/24 08:23:31;;;;;;;15.40;9.60;;;;;;;22.93;76.63;98180.81;106934;1268;25409;-81
2023/08/24 08:25:59;;;;;;;12.70;9.80;;;;;;;23.08;74.74;98186.11;106926;1268;22540;-82
2023/08/24 08:28:27;;;;;;;14.60;9.70;;;;;;;23.11;71.93;98189.85;106856;1280;24239;-81
2023/08/24 08:30:55;;;;;;;13.80;9.30;;;;;;;23.18;73.81;98188.52;106835;1273;22528;-81
2023/08/24 08:33:24;;;;;;;14.40;8.80;;;;;;;23.29;73.22;98183.06;106461;1266;22554;-81
2023/08/24 08:35:52;;;;;;;9.90;7.00;;;;;;;23.37;70.44;98188.02;106503;1258;25664;-81
2023/08/24 08:38:25;;;;;;;8.90;6.40;;;;;;;23.41;70.14;98187.42;106834;1270;22537;-82
2023/08/24 08:40:56;;;;;;;12.20;6.90;;;;;;;23.47;69.40;98184.35;106839;1269;22615;-81
2023/08/24 08:43:24;;;;;;;10.60;7.00;;;;;;;23.56;67.39;98186.01;106831;1262;22569;-81
2023/08/24 08:45:55;;;;;;;11.60;5.90;;;;;;;23.59;66.75;98184.77;106866;1279;22533;-82
2023/08/24 08:48:25;;;;;;;40.20;9.40;;;;;;;23.66;65.58;98182.80;106725;1271;22650;-82
2023/08/24 08:50:55;;;;;;;14.20;6.50;;;;;;;23.74;64.15;98179.05;106830;1276;22704;-82
2023/08/24 08:53:23;;;;;;;9.00;5.90;;;;;;;23.84;63.31;98179.23;106861;1269;22539;-81
2023/08/24 08:55:53;;;;;;;10.70;6.00;;;;;;;23.89;63.73;98171.55;106788;1272;22671;-81
2023/08/24 08:58:22;;;;;;;6.30;3.90;;;;;;;24.00;62.76;98170.95;106874;1257;25618;-81
2023/08/24 09:00:51;;;;;;;8.40;4.20;;;;;;;24.00;58.24;98170.33;106873;1267;24449;-82
2023/08/24 09:03:20;;;;;;;13.70;5.30;;;;;;;24.09;57.94;98169.44;106873;1274;22606;-82
2023/08/24 09:05:48;;;;;;;9.00;5.40;;;;;;;24.25;61.28;98167.74;106954;1270;22590;-81
2023/08/24 09:08:17;;;;;;;10.00;4.50;;;;;;;24.37;58.14;98171.52;106641;1279;25356;-81
2023/08/24 09:10:45;;;;;;;10.80;4.50;;;;;;;24.48;59.15;98167.61;106734;1267;22537;-82
2023/08/24 09:13:13;;;;;;;6.10;3.90;;;;;;;24.59;54.71;98173.10;106843;1274;22550;-81
2023/08/24 09:15:42;;;;;;;5.60;3.80;;;;;;;24.55;51.46;98172.05;106877;1279;24234;-80
2023/08/24 09:18:10;;;;;;;7.20;3.70;;;;;;;24.51;52.62;98169.67;106507;1273;22534;-81
2023/08/24 09:20:38;;;;;;;5.70;3.50;;;;;;;24.62;51.34;98169.97;106875;1273;22542;-80
2023/08/24 09:23:18;;;;;;;6.20;3.50;;;;;;;24.70;52.07;98171.02;106719;1280;22689;-81
2023/08/24 09:25:47;;;;;;;13.30;5.30;;;;;;;24.76;49.92;98172.33;106957;1279;24353;-81
2023/08/24 09:28:24;;;;;;;7.80;4.00;;;;;;;24.88;53.76;98165.92;106882;1258;26966;-82
2023/08/24 09:30:56;;;;;;;5.30;3.30;;;;;;;25.06;51.22;98162.68;106907;1280;22670;-82
2023/08/24 09:33:25;;;;;;;6.90;3.10;;;;;;;25.04;50.21;98161.96;106917;1268;22537;-81
2023/08/24 09:36:01;;;;;;;8.60;3.30;;;;;;;25.06;49.70;98158.59;106567;1270;22532;-80
2023/08/24 09:38:29;;;;;;;7.00;3.60;;;;;;;25.07;47.01;98155.52;106880;1277;22558;-81
2023/08/24 09:40:57;;;;;;;8.70;4.20;;;;;;;25.08;48.69;98161.34;106500;1280;22552;-81
2023/08/24 09:43:25;;;;;;;11.40;4.50;;;;;;;25.17;49.37;98161.41;106852;1269;22546;-81
2023/08/24 09:45:56;;;;;;;5.60;3.50;;;;;;;25.24;48.41;98161.67;106929;1280;25287;-82
2023/08/24 09:48:24;;;;;;;7.40;3.80;;;;;;;25.24;47.50;98160.09;106901;1280;23116;-82
2023/08/24 09:50:57;;;;;;;6.50;3.80;;;;;;;25.39;49.05;98157.21;106866;1276;22544;-82
2023/08/24 09:53:28;;;;;;;11.00;4.90;;;;;;;25.54;47.77;98155.50;106771;1280;22607;-82
2023/08/24 09:56:01;;;;;;;12.20;5.10;;;;;;;25.56;47.94;98160.85;106833;1268;22551;-82
2023/08/24 09:58:31;;;;;;;7.20;4.70;;;;;;;25.62;47.38;98158.73;106800;1279;24244;-82
2023/08/24 10:01:01;;;;;;;7.10;4.00;;;;;;;25.63;46.39;98159.70;106873;1267;22534;-82
2023/08/24 10:03:32;;;;;;;6.80;4.30;;;;;;;25.57;45.71;98157.23;106884;1279;22542;-82
2023/08/24 10:06:02;;;;;;;7.40;4.30;;;;;;;25.62;46.51;98154.17;106838;1273;23471;-81
2023/08/24 10:08:39;;;;;;;8.60;4.20;;;;;;;25.73;47.37;98157.02;106831;1267;24370;-81
2023/08/24 10:11:10;;;;;;;9.50;4.30;;;;;;;25.84;46.33;98155.16;106894;1270;22742;-82
2023/08/24 10:13:57;;;;;;;9.60;4.90;;;;;;;25.97;47.80;98155.40;106760;1279;22537;-82
2023/08/24 10:16:28;;;;;;;8.20;4.70;;;;;;;26.10;47.62;98146.08;106798;1279;22546;-82
2023/08/24 10:18:57;;;;;;;8.20;5.10;;;;;;;26.07;46.19;98148.61;106920;1279;23299;-82
2023/08/24 10:21:28;;;;;;;8.90;4.30;;;;;;;26.00;46.17;98151.84;106758;1257;25643;-82
2023/08/24 10:24:01;;;;;;;8.10;4.60;;;;;;;25.97;45.76;98148.93;106929;1267;22529;-82
2023/08/24 10:26:32;;;;;;;8.80;4.50;;;;;;;26.01;47.10;98146.88;106800;1267;22559;-82
2023/08/24 10:29:02;;;;;;;9.70;4.60;;;;;;;26.16;47.08;98145.44;106822;1279;24215;-81
2023/08/24 10:31:31;;;;;;;10.40;4.80;;;;;;;26.34;46.77;98148.55;106766;1278;22554;-82
2023/08/24 10:34:01;;;;;;;7.40;4.50;;;;;;;26.42;46.30;98145.62;106769;1267;22528;-82
2023/08/24 10:36:29;;;;;;;7.70;4.00;;;;;;;26.52;44.93;98149.89;106898;1279;22549;-83
2023/08/24 10:40:46;;;;;;;8.40;4.30;;;;;;;26.47;43.12;98155.48;106733;1280;22547;-82
2023/08/24 10:45:16;;;;;;;8.40;4.00;;;;;;;26.44;44.51;98137.96;106327;1287;22549;-81
2023/08/24 10:47:45;;;;;;;6.70;3.80;;;;;;;26.53;42.63;98128.26;107253;1263;22812;-81
2023/08/24 10:50:14;;;;;;;12.90;4.60;;;;;;;26.60;43.05;98137.80;106825;1278;24008;-81
2023/08/24 10:52:44;;;;;;;7.80;4.30;;;;;;;26.64;41.92;98134.16;106968;1267;22566;-82
2023/08/24 10:55:27;;;;;;;8.90;4.50;;;;;;;26.63;42.57;98130.36;106954;1279;24363;-81
2023/08/24 10:58:00;;;;;;;7.10;4.60;;;;;;;26.65;43.42;98121.91;107009;1266;22527;-82
2023/08/24 11:00:31;;;;;;;11.20;4.40;;;;;;;26.74;43.10;98122.10;106925;1279;25500;-82
2023/08/24 11:02:59;;;;;;;6.00;4.10;;;;;;;26.86;42.59;98122.05;106932;1278;22804;-82
2023/08/24 11:05:31;;;;;;;9.00;4.50;;;;;;;26.86;40.88;98123.09;106828;1270;22970;-81
2023/08/24 11:08:05;;;;;;;8.20;4.40;;;;;;;26.87;41.64;98122.28;107012;1264;22606;-81
2023/08/24 11:10:42;;;;;;;10.20;4.50;;;;;;;26.90;41.34;98124.89;106925;1263;22555;-82
2023/08/24 11:13:11;;;;;;;10.10;4.70;;;;;;;26.86;40.88;98118.51;106985;1279;22781;-82
2023/08/24 11:15:47;;;;;;;10.90;4.60;;;;;;;26.84;41.34;98117.96;106610;1265;22537;-81
2023/08/24 11:18:18;;;;;;;9.30;4.90;;;;;;;26.95;42.19;98111.66;106589;1265;24421;-81
2023/08/24 11:21:07;;;;;;;7.50;4.00;;;;;;;27.09;41.47;98103.61;106579;1274;22746;-82
2023/08/24 11:23:36;;;;;;;8.50;4.50;;;;;;;27.19;40.02;98099.70;106834;1263;22657;-81
2023/08/24 11:26:04;;;;;;;8.00;4.30;;;;;;;27.09;39.51;98097.61;106881;1279;22657;-83
2023/08/24 11:28:32;;;;;;;5.80;3.90;;;;;;;27.12;41.13;98092.38;106959;1278;25297;-82
2023/08/24 11:31:00;;;;;;;7.50;4.70;;;;;;;27.38;41.33;98088.77;106975;1263;25523;-83
2023/08/24 11:33:30;;;;;;;10.60;4.70;;;;;;;27.57;40.58;98085.84;107077;1264;22698;-83
2023/08/24 11:36:00;;;;;;;8.00;4.60;;;;;;;27.66;40.99;98080.48;107249;1279;25538;-82